Terminal Aerodrome Forecast
Issued by NWS

Home | Current Version | Previous Version | Graphics & Text | Print | Product List | Glossary On
Versions: 1 2 3 4 5 6 7 8 9 10 11 12 13 14 15 16 17 18 19
000
FTUS43 KMPX 230520
TAFRWF
TAF
KRWF 230520Z 2306/2406 07006KT P6SM BKN007 OVC010
     FM231100 09008KT 4SM BR OVC004
     FM231600 10010KT P6SM VCSH OVC008
     FM231900 11012KT P6SM OVC014=

USA.gov is the U.S. government's official web portal to all federal, state and local government web resources and services.